createdAt,value
2022-10-19T00:00:20.304Z,12.90
2022-10-19T00:01:20.277Z,14.30
2022-10-19T00:02:20.314Z,20.40
2022-10-19T00:03:23.114Z,18.40
2022-10-19T00:04:20.238Z,15.20
2022-10-19T00:05:20.195Z,21.70
2022-10-19T00:06:20.339Z,22.20
2022-10-19T00:07:20.198Z,18.30
2022-10-19T00:08:20.147Z,16.40
2022-10-19T00:09:20.158Z,18.70
2022-10-19T00:10:20.130Z,17.50
2022-10-19T00:11:20.118Z,17.70
2022-10-19T00:12:20.232Z,16.70
2022-10-19T00:13:20.106Z,17.10
2022-10-19T00:14:20.069Z,16.80
2022-10-19T00:15:20.077Z,18.20
2022-10-19T00:16:20.075Z,18.20
2022-10-19T00:17:20.048Z,16.90
2022-10-19T00:18:20.152Z,16.50
2022-10-19T00:19:20.031Z,16.90
2022-10-19T00:20:19.989Z,19.70
2022-10-19T00:21:19.995Z,24.40
2022-10-19T00:22:19.971Z,18.30
2022-10-19T00:23:19.956Z,16.00
2022-10-19T00:24:20.089Z,15.50
2022-10-19T00:25:19.922Z,16.60
2022-10-19T00:26:19.922Z,15.10
2022-10-19T00:27:19.915Z,15.90
2022-10-19T00:28:19.882Z,18.00
2022-10-19T00:29:19.873Z,16.20
2022-10-19T00:30:19.976Z,15.10
2022-10-19T00:31:19.857Z,20.40
2022-10-19T00:32:19.824Z,18.60
2022-10-19T00:33:19.832Z,16.90
2022-10-19T00:34:19.817Z,18.10
2022-10-19T00:35:19.785Z,16.10
2022-10-19T00:36:19.817Z,24.20
2022-10-19T00:37:19.764Z,21.40
2022-10-19T00:38:19.759Z,29.50
2022-10-19T00:39:19.748Z,23.10
2022-10-19T00:40:19.715Z,21.50
2022-10-19T00:41:19.733Z,21.20
2022-10-19T00:42:19.806Z,20.80
2022-10-19T00:43:19.686Z,19.60
2022-10-19T00:44:19.678Z,21.80
2022-10-19T00:45:19.674Z,19.60
2022-10-19T00:46:19.639Z,21.90
2022-10-19T00:47:19.627Z,21.30
2022-10-19T00:48:19.734Z,22.90
2022-10-19T00:49:19.599Z,34.20
2022-10-19T00:50:19.594Z,32.80
2022-10-19T00:51:19.592Z,27.80
2022-10-19T00:52:19.568Z,24.40
2022-10-19T00:53:19.562Z,28.10
2022-10-19T00:54:19.640Z,30.00
2022-10-19T00:55:19.519Z,30.50
2022-10-19T00:56:19.514Z,35.00
2022-10-19T00:57:19.491Z,36.40
2022-10-19T00:58:19.494Z,37.80
2022-10-19T00:59:19.483Z,39.80
2022-10-19T01:00:19.480Z,42.50
2022-10-19T01:01:19.495Z,39.80
2022-10-19T01:02:19.422Z,49.60
2022-10-19T01:03:19.411Z,54.00
2022-10-19T01:04:19.415Z,47.20
2022-10-19T01:05:19.390Z,44.90
2022-10-19T01:06:19.505Z,44.60
2022-10-19T01:07:19.375Z,51.40
2022-10-19T01:08:19.342Z,43.50
2022-10-19T01:09:19.347Z,44.10
2022-10-19T01:10:19.323Z,52.80
2022-10-19T01:11:19.324Z,46.60
2022-10-19T01:12:19.428Z,49.30
2022-10-19T01:13:19.284Z,60.10
2022-10-19T01:14:19.290Z,47.40
2022-10-19T01:15:19.273Z,49.70
2022-10-19T01:16:19.235Z,39.80
2022-10-19T01:17:19.235Z,45.40
2022-10-19T01:18:19.330Z,49.40
2022-10-19T01:19:19.227Z,44.00
2022-10-19T01:20:19.186Z,44.50
2022-10-19T01:21:19.200Z,44.30
2022-10-19T01:22:19.158Z,40.90
2022-10-19T01:23:19.146Z,50.50
2022-10-19T01:24:19.261Z,42.80
2022-10-19T01:25:19.118Z,46.40
2022-10-19T01:26:19.131Z,40.50
2022-10-19T01:27:19.103Z,36.70
2022-10-19T01:28:19.089Z,47.10
2022-10-19T01:29:19.091Z,49.60
2022-10-19T01:30:19.088Z,44.20
2022-10-19T01:31:19.049Z,46.30
2022-10-19T01:32:19.056Z,51.50
2022-10-19T01:33:19.024Z,55.30
2022-10-19T01:34:18.991Z,60.30
2022-10-19T01:35:18.983Z,56.30
2022-10-19T01:36:19.093Z,227.90
2022-10-19T01:37:18.971Z,796.00
2022-10-19T01:38:18.953Z,741.00
2022-10-19T01:39:18.944Z,759.50
2022-10-19T01:40:18.913Z,785.90
2022-10-19T01:41:18.917Z,213.90
2022-10-19T01:42:19.003Z,35.50
2022-10-19T01:43:18.883Z,40.10
2022-10-19T01:44:18.880Z,46.90
2022-10-19T01:45:18.850Z,37.50
2022-10-19T01:46:18.851Z,39.50
2022-10-19T01:47:18.834Z,38.00
2022-10-19T01:48:18.834Z,41.30
2022-10-19T01:49:18.793Z,48.90
2022-10-19T01:50:18.788Z,47.10
2022-10-19T01:51:18.778Z,49.70
2022-10-19T01:52:18.763Z,51.00
2022-10-19T01:53:18.748Z,43.30
2022-10-19T01:54:22.704Z,45.30
2022-10-19T01:55:18.716Z,51.80
2022-10-19T01:56:18.708Z,46.60
2022-10-19T01:57:18.685Z,58.60
2022-10-19T01:58:18.689Z,47.50
2022-10-19T01:59:18.690Z,49.90
2022-10-19T02:00:18.675Z,58.60
2022-10-19T02:01:18.650Z,48.50
2022-10-19T02:02:18.616Z,34.40
2022-10-19T02:03:18.600Z,26.50
2022-10-19T02:04:18.606Z,35.30
2022-10-19T02:05:18.578Z,27.70
2022-10-19T02:06:18.689Z,30.60
2022-10-19T02:07:18.561Z,30.70
2022-10-19T02:08:18.530Z,43.60
2022-10-19T02:09:18.543Z,48.10
2022-10-19T02:10:18.505Z,46.70
2022-10-19T02:11:18.491Z,41.40
2022-10-19T02:12:18.523Z,49.90
2022-10-19T02:13:18.473Z,53.70
2022-10-19T02:14:18.464Z,51.20
2022-10-19T02:15:18.457Z,53.70
2022-10-19T02:16:18.420Z,50.20
2022-10-19T02:17:18.424Z,50.80
2022-10-19T02:18:18.429Z,42.50
2022-10-19T02:19:18.467Z,45.50
2022-10-19T02:20:18.386Z,50.80
2022-10-19T02:21:18.375Z,45.20
2022-10-19T02:22:18.342Z,739.30
2022-10-19T02:23:18.343Z,826.20
2022-10-19T02:24:18.367Z,759.60
2022-10-19T02:25:18.303Z,792.10
2022-10-19T02:26:18.297Z,756.40
2022-10-19T02:27:18.287Z,396.30
2022-10-19T02:28:18.315Z,25.90
2022-10-19T02:29:18.276Z,36.40
2022-10-19T02:30:18.345Z,42.40
2022-10-19T02:31:18.224Z,43.80
2022-10-19T02:32:18.229Z,47.50
2022-10-19T02:33:18.204Z,36.00
2022-10-19T02:34:18.190Z,40.10
2022-10-19T02:35:18.187Z,39.00
2022-10-19T02:36:18.285Z,41.90
2022-10-19T02:37:20.938Z,54.30
2022-10-19T02:38:19.141Z,41.30
2022-10-19T02:39:18.128Z,43.00
2022-10-19T02:40:18.097Z,36.70
2022-10-19T02:41:18.115Z,36.20
2022-10-19T02:42:18.179Z,33.60
2022-10-19T02:43:18.067Z,41.40
2022-10-19T02:44:18.053Z,41.60
2022-10-19T02:45:18.039Z,41.00
2022-10-19T02:46:18.049Z,32.40
2022-10-19T02:47:18.033Z,36.20
2022-10-19T02:48:18.109Z,34.60
2022-10-19T02:49:17.997Z,38.40
2022-10-19T02:50:17.970Z,40.20
2022-10-19T02:51:17.959Z,53.40
2022-10-19T02:52:17.955Z,56.20
2022-10-19T02:53:17.942Z,42.40
2022-10-19T02:54:17.930Z,43.10
2022-10-19T02:55:17.910Z,46.90
2022-10-19T02:56:17.895Z,48.60
2022-10-19T02:57:17.871Z,65.80
2022-10-19T02:58:17.865Z,48.00
2022-10-19T02:59:17.856Z,46.60
2022-10-19T03:00:17.942Z,39.20
2022-10-19T03:01:17.882Z,30.20
2022-10-19T03:02:17.803Z,33.80
2022-10-19T03:03:17.784Z,38.80
2022-10-19T03:04:17.785Z,43.40
2022-10-19T03:05:17.765Z,40.40
2022-10-19T03:06:17.875Z,49.00
2022-10-19T03:07:17.747Z,56.10
2022-10-19T03:08:17.719Z,53.20
2022-10-19T03:09:17.717Z,39.30
2022-10-19T03:10:17.694Z,38.30
2022-10-19T03:11:17.675Z,42.30
2022-10-19T03:12:17.699Z,42.00
2022-10-19T03:13:17.646Z,50.40
2022-10-19T03:14:17.657Z,42.60
2022-10-19T03:15:17.631Z,31.90
2022-10-19T03:16:17.606Z,36.20
2022-10-19T03:17:17.602Z,33.90
2022-10-19T03:18:17.617Z,40.60
2022-10-19T03:19:17.569Z,40.20
2022-10-19T03:20:17.571Z,40.10
2022-10-19T03:21:17.539Z,35.50
2022-10-19T03:22:17.542Z,35.30
2022-10-19T03:23:17.523Z,30.90
2022-10-19T03:24:17.619Z,36.50
2022-10-19T03:25:17.489Z,36.90
2022-10-19T03:26:17.492Z,30.50
2022-10-19T03:27:17.471Z,33.10
2022-10-19T03:28:17.448Z,35.40
2022-10-19T03:29:17.443Z,53.30
2022-10-19T03:30:17.456Z,44.90
2022-10-19T03:31:17.402Z,34.00
2022-10-19T03:32:17.407Z,37.00
2022-10-19T03:33:17.387Z,39.10
2022-10-19T03:34:17.395Z,37.90
2022-10-19T03:35:17.362Z,33.40
2022-10-19T03:36:17.451Z,37.20
2022-10-19T03:37:17.336Z,32.20
2022-10-19T03:38:17.314Z,36.10
2022-10-19T03:39:17.386Z,34.70
2022-10-19T03:40:17.297Z,35.80
2022-10-19T03:41:17.282Z,32.30
2022-10-19T03:42:17.392Z,36.00
2022-10-19T03:43:17.241Z,33.80
2022-10-19T03:44:17.256Z,33.00
2022-10-19T03:45:17.214Z,35.30
2022-10-19T03:46:17.226Z,30.00
2022-10-19T03:47:17.198Z,31.10
2022-10-19T03:48:17.238Z,30.60
2022-10-19T03:49:17.171Z,36.80
2022-10-19T03:50:17.155Z,50.00
2022-10-19T03:51:17.128Z,34.50
2022-10-19T03:52:17.141Z,29.50
2022-10-19T03:53:17.106Z,32.70
2022-10-19T03:54:17.143Z,35.30
2022-10-19T03:55:17.102Z,36.20
2022-10-19T03:56:17.071Z,34.50
2022-10-19T03:57:17.052Z,29.50
2022-10-19T03:58:17.060Z,32.70
2022-10-19T03:59:17.043Z,26.30
2022-10-19T04:00:17.038Z,32.00
2022-10-19T04:01:17.079Z,24.10
2022-10-19T04:02:16.988Z,29.10
2022-10-19T04:03:16.969Z,24.60
2022-10-19T04:04:16.974Z,29.50
2022-10-19T04:05:16.949Z,34.40
2022-10-19T04:06:19.700Z,32.30
2022-10-19T04:07:18.031Z,29.90
2022-10-19T04:08:16.912Z,22.50
2022-10-19T04:09:16.906Z,25.90
2022-10-19T04:10:16.908Z,34.30
2022-10-19T04:11:16.864Z,30.70
2022-10-19T04:12:16.895Z,31.80
2022-10-19T04:13:16.833Z,35.80
2022-10-19T04:14:26.748Z,34.20
2022-10-19T04:15:17.824Z,27.70
2022-10-19T04:16:16.792Z,28.80
2022-10-19T04:17:16.797Z,38.10
2022-10-19T04:18:16.883Z,31.30
2022-10-19T04:19:16.761Z,30.00
2022-10-19T04:20:16.757Z,32.50
2022-10-19T04:21:16.746Z,30.90
2022-10-19T04:22:16.746Z,31.10
2022-10-19T04:24:16.795Z,38.50
2022-10-19T04:25:16.680Z,35.00
2022-10-19T04:26:16.676Z,25.60
2022-10-19T04:27:16.647Z,23.40
2022-10-19T04:28:16.661Z,25.60
2022-10-19T04:29:16.649Z,27.40
2022-10-19T04:30:16.639Z,25.70
2022-10-19T04:31:16.586Z,31.60
2022-10-19T04:32:16.591Z,27.00
2022-10-19T04:33:16.580Z,25.70
2022-10-19T04:34:16.576Z,31.20
2022-10-19T04:35:16.550Z,24.00
2022-10-19T04:36:16.642Z,27.50
2022-10-19T04:37:16.520Z,22.40
2022-10-19T04:38:16.519Z,39.10
2022-10-19T04:39:16.489Z,28.70
2022-10-19T04:40:16.483Z,33.20
2022-10-19T04:41:16.471Z,21.50
2022-10-19T04:42:16.485Z,26.10
2022-10-19T04:43:16.435Z,28.50
2022-10-19T04:44:16.464Z,30.30
2022-10-19T04:45:16.400Z,25.70
2022-10-19T04:46:16.418Z,24.00
2022-10-19T04:47:16.389Z,25.70
2022-10-19T04:48:16.402Z,27.30
2022-10-19T04:49:19.434Z,27.90
2022-10-19T04:50:16.339Z,29.00
2022-10-19T04:51:16.322Z,27.70
2022-10-19T04:52:16.327Z,28.40
2022-10-19T04:53:16.316Z,28.80
2022-10-19T04:54:16.329Z,28.70
2022-10-19T04:55:16.277Z,25.50
2022-10-19T04:56:16.253Z,27.20
2022-10-19T04:57:16.248Z,26.80
2022-10-19T04:58:27.828Z,29.70
2022-10-19T05:02:49.259Z,14.30
2022-10-19T05:03:49.247Z,14.70
2022-10-19T05:04:49.217Z,17.80
2022-10-19T05:05:49.318Z,17.30
2022-10-19T05:06:49.180Z,18.10
2022-10-19T05:07:49.176Z,16.80
2022-10-19T05:08:49.157Z,15.80
2022-10-19T05:09:49.136Z,17.60
2022-10-19T05:10:49.149Z,17.10
2022-10-19T05:11:49.219Z,22.40
2022-10-19T05:12:49.117Z,18.70
2022-10-19T05:13:49.091Z,21.10
2022-10-19T05:14:49.079Z,21.60
2022-10-19T05:15:49.071Z,22.30
2022-10-19T05:16:49.047Z,24.60
2022-10-19T05:17:49.076Z,24.10
2022-10-19T05:18:49.046Z,23.90
2022-10-19T05:19:49.018Z,26.70
2022-10-19T05:20:49.022Z,26.30
2022-10-19T05:21:49.010Z,29.50
2022-10-19T05:22:48.964Z,25.50
2022-10-19T05:23:48.970Z,21.30
2022-10-19T05:24:48.982Z,24.50
2022-10-19T05:25:48.944Z,26.20
2022-10-19T05:26:48.936Z,27.80
2022-10-19T05:27:48.916Z,27.30
2022-10-19T05:28:48.956Z,775.40
2022-10-19T05:29:48.912Z,473.50
2022-10-19T05:30:49.145Z,345.90
2022-10-19T05:31:48.852Z,287.90
2022-10-19T05:32:48.855Z,15.30
2022-10-19T05:33:48.828Z,174.90
2022-10-19T05:34:48.816Z,488.80
2022-10-19T05:35:48.836Z,239.80
2022-10-19T05:36:48.792Z,14.70
2022-10-19T05:37:48.763Z,12.50
2022-10-19T05:38:48.787Z,12.90
2022-10-19T05:39:48.759Z,12.30
2022-10-19T05:40:52.946Z,14.30
2022-10-19T05:41:49.814Z,14.60
2022-10-19T05:42:48.706Z,15.60
2022-10-19T05:43:48.674Z,18.80
2022-10-19T05:44:48.689Z,17.70
2022-10-19T05:45:48.660Z,18.60
2022-10-19T05:46:48.645Z,19.30
2022-10-19T05:47:48.675Z,22.00
2022-10-19T05:48:48.626Z,22.70
2022-10-19T05:49:48.597Z,23.40
2022-10-19T05:50:48.618Z,21.40
2022-10-19T05:51:48.567Z,20.70
2022-10-19T05:52:48.571Z,23.10
2022-10-19T05:53:48.681Z,20.30
2022-10-19T05:54:48.538Z,16.60
2022-10-19T05:55:48.523Z,15.60
2022-10-19T05:56:48.533Z,18.30
2022-10-19T05:57:48.511Z,18.90
2022-10-19T05:58:48.479Z,19.20
2022-10-19T05:59:48.505Z,20.10
2022-10-19T06:00:48.453Z,17.70
2022-10-19T06:01:48.479Z,18.30
2022-10-19T06:02:48.439Z,19.90
2022-10-19T06:03:48.411Z,18.70
2022-10-19T06:04:48.425Z,19.50
2022-10-19T06:05:48.435Z,17.50
2022-10-19T06:06:48.362Z,17.80
2022-10-19T06:07:48.373Z,17.70
2022-10-19T06:08:48.351Z,19.70
2022-10-19T06:09:48.324Z,19.50
2022-10-19T06:10:48.341Z,16.50
2022-10-19T06:11:48.456Z,17.70
2022-10-19T06:12:48.293Z,18.10
2022-10-19T06:13:48.271Z,18.60
2022-10-19T06:14:48.275Z,16.60
2022-10-19T06:15:48.248Z,16.00
2022-10-19T06:16:48.238Z,17.80
2022-10-19T06:17:48.366Z,14.90
2022-10-19T06:18:48.216Z,18.90
2022-10-19T06:19:48.227Z,17.60
2022-10-19T06:20:48.332Z,17.90
2022-10-19T06:21:48.166Z,15.10
2022-10-19T06:22:48.166Z,18.60
2022-10-19T06:23:48.263Z,20.20
2022-10-19T06:24:48.139Z,29.00
2022-10-19T06:25:48.128Z,22.10
2022-10-19T06:26:48.110Z,21.50
2022-10-19T06:27:48.114Z,20.80
2022-10-19T06:28:48.076Z,21.50
2022-10-19T06:29:48.092Z,20.10
2022-10-19T06:30:48.108Z,20.60
2022-10-19T06:31:48.041Z,18.90
2022-10-19T06:32:48.040Z,19.00
2022-10-19T06:33:49.454Z,18.00
2022-10-19T06:34:48.824Z,22.60
2022-10-19T06:35:48.096Z,21.20
2022-10-19T06:36:47.985Z,19.80
2022-10-19T06:37:47.964Z,22.70
2022-10-19T06:38:47.971Z,9.40
2022-10-19T06:39:47.979Z,14.20
2022-10-19T06:40:47.891Z,13.90
2022-10-19T06:41:48.000Z,12.00
2022-10-19T06:42:47.895Z,13.40
2022-10-19T06:43:47.880Z,9.30
2022-10-19T06:44:47.846Z,13.10
2022-10-19T06:45:47.859Z,10.40
2022-10-19T06:46:47.850Z,9.30
2022-10-19T06:48:47.816Z,16.10
2022-10-19T06:49:47.809Z,17.70
2022-10-19T06:50:47.775Z,11.10
2022-10-19T06:51:47.778Z,10.50
2022-10-19T06:52:47.741Z,10.40
2022-10-19T06:53:48.940Z,10.40
2022-10-19T06:54:47.730Z,13.50
2022-10-19T06:55:47.748Z,13.60
2022-10-19T06:56:47.720Z,10.30
2022-10-19T06:57:47.716Z,8.70
2022-10-19T06:58:47.668Z,10.40
2022-10-19T06:59:50.170Z,8.70
2022-10-19T07:00:48.674Z,8.40
2022-10-19T07:01:47.649Z,8.00
2022-10-19T07:02:47.606Z,7.70
2022-10-19T07:03:47.611Z,7.70
2022-10-19T07:04:47.580Z,8.60
2022-10-19T07:05:47.608Z,8.70
2022-10-19T07:06:47.565Z,7.60
2022-10-19T07:07:47.571Z,7.90
2022-10-19T07:08:47.558Z,8.20
2022-10-19T07:09:47.540Z,7.20
2022-10-19T07:10:47.509Z,7.90
2022-10-19T07:11:47.636Z,7.20
2022-10-19T07:12:47.489Z,8.00
2022-10-19T07:13:47.470Z,8.20
2022-10-19T07:14:47.474Z,8.30
2022-10-19T07:15:47.442Z,9.80
2022-10-19T07:16:47.433Z,8.30
2022-10-19T07:17:47.535Z,7.60
2022-10-19T07:18:47.401Z,7.80
2022-10-19T07:19:47.402Z,7.20
2022-10-19T07:20:47.381Z,8.40
2022-10-19T07:21:47.363Z,8.40
2022-10-19T07:22:47.357Z,8.60
2022-10-19T07:23:47.491Z,7.10
2022-10-19T07:24:47.327Z,7.10
2022-10-19T07:25:47.324Z,7.10
2022-10-19T07:26:47.286Z,7.00
2022-10-19T07:27:47.297Z,6.40
2022-10-19T07:28:47.265Z,7.00
2022-10-19T07:29:47.364Z,7.70
2022-10-19T07:30:47.249Z,7.40
2022-10-19T07:31:47.240Z,7.50
2022-10-19T07:32:47.314Z,7.30
2022-10-19T07:33:47.207Z,6.90
2022-10-19T07:34:47.202Z,7.60
2022-10-19T07:35:47.294Z,8.20
2022-10-19T07:36:47.163Z,7.50
2022-10-19T07:37:47.160Z,7.60
2022-10-19T07:38:47.130Z,7.40
2022-10-19T07:39:47.132Z,9.30
2022-10-19T07:40:47.604Z,7.30
2022-10-19T07:41:47.119Z,6.90
2022-10-19T07:42:47.091Z,7.70
2022-10-19T07:43:47.076Z,7.10
2022-10-19T07:44:47.063Z,6.90
2022-10-19T07:45:47.076Z,7.40
2022-10-19T07:46:47.010Z,7.60
2022-10-19T07:47:47.131Z,6.80
2022-10-19T07:48:47.006Z,7.30
2022-10-19T07:49:47.008Z,6.80
2022-10-19T07:50:46.961Z,7.10
2022-10-19T07:51:46.975Z,6.60
2022-10-19T07:52:46.953Z,7.10
2022-10-19T07:53:46.945Z,7.10
2022-10-19T07:54:46.935Z,6.70
2022-10-19T07:55:46.908Z,7.30
2022-10-19T07:56:46.910Z,7.20
2022-10-19T07:57:47.136Z,7.10
2022-10-19T07:58:46.853Z,7.80
2022-10-19T07:59:46.894Z,7.10
2022-10-19T08:00:46.825Z,6.60
2022-10-19T08:01:46.867Z,7.00
2022-10-19T08:03:05.112Z,7.20
2022-10-19T08:05:00.217Z,7.40
2022-10-19T08:05:47.756Z,6.70
2022-10-19T08:06:46.747Z,6.30
2022-10-19T08:07:46.731Z,6.80
2022-10-19T08:08:46.788Z,7.10
2022-10-19T08:09:54.497Z,6.80
2022-10-19T08:10:47.727Z,6.70
2022-10-19T08:11:46.693Z,6.50
2022-10-19T08:12:46.658Z,6.70
2022-10-19T08:13:46.640Z,7.70
2022-10-19T08:14:46.664Z,6.00
2022-10-19T08:15:46.621Z,6.70
2022-10-19T08:16:46.751Z,6.40
2022-10-19T08:17:46.605Z,6.20
2022-10-19T08:18:46.583Z,6.80
2022-10-19T08:19:46.587Z,6.20
2022-10-19T08:20:46.547Z,6.70
2022-10-19T08:21:46.561Z,6.20
2022-10-19T08:22:46.646Z,6.30
2022-10-19T08:23:46.532Z,6.40
2022-10-19T08:24:46.517Z,6.60
2022-10-19T08:25:46.504Z,6.50
2022-10-19T08:26:46.483Z,6.10
2022-10-19T08:27:46.466Z,6.20
2022-10-19T08:28:46.553Z,6.60
2022-10-19T08:29:46.431Z,6.10
2022-10-19T08:30:46.438Z,6.70
2022-10-19T08:31:46.413Z,6.10
2022-10-19T08:32:46.397Z,5.90
2022-10-19T08:33:46.397Z,5.90
2022-10-19T08:34:46.376Z,6.70
2022-10-19T08:35:46.358Z,6.30
2022-10-19T08:36:46.358Z,6.00
2022-10-19T08:37:46.590Z,6.20
2022-10-19T08:38:46.327Z,6.60
2022-10-19T08:39:46.339Z,6.20
2022-10-19T08:40:46.296Z,6.10
2022-10-19T08:41:46.266Z,6.10
2022-10-19T08:42:46.262Z,6.00
2022-10-19T08:43:46.235Z,5.40
2022-10-19T08:44:46.235Z,6.10
2022-10-19T08:45:46.233Z,5.80
2022-10-19T08:46:46.223Z,5.80
2022-10-19T08:47:46.201Z,5.70
2022-10-19T08:48:46.161Z,5.10
2022-10-19T08:49:46.170Z,5.70
2022-10-19T08:50:46.164Z,5.50
2022-10-19T08:51:46.162Z,5.60
2022-10-19T08:52:46.258Z,5.60
2022-10-19T08:53:46.097Z,5.90
2022-10-19T08:55:46.081Z,5.30
2022-10-19T08:56:51.079Z,5.50
2022-10-19T08:57:47.183Z,5.40
2022-10-19T08:58:46.052Z,5.50
2022-10-19T08:59:46.037Z,5.40
2022-10-19T09:00:46.013Z,5.30
2022-10-19T09:01:46.003Z,5.80
2022-10-19T09:02:45.994Z,5.40
2022-10-19T09:04:01.303Z,5.40
2022-10-19T09:04:46.978Z,5.30
2022-10-19T09:05:45.957Z,5.40
2022-10-19T09:06:45.924Z,5.90
2022-10-19T09:07:45.919Z,5.50
2022-10-19T09:08:45.970Z,5.00
2022-10-19T09:10:45.866Z,5.40
2022-10-19T09:11:45.879Z,5.50
2022-10-19T09:12:45.872Z,5.30
2022-10-19T09:14:04.112Z,5.70
2022-10-19T09:14:46.951Z,5.50
2022-10-19T09:15:45.800Z,5.60
2022-10-19T09:16:45.814Z,5.40
2022-10-19T09:17:45.799Z,5.50
2022-10-19T09:18:45.788Z,5.70
2022-10-19T09:19:45.780Z,5.80
2022-10-19T09:20:45.770Z,6.10
2022-10-19T09:21:47.640Z,5.50
2022-10-19T09:22:45.754Z,5.30
2022-10-19T09:23:45.699Z,5.20
2022-10-19T09:24:45.699Z,5.90
2022-10-19T09:25:45.683Z,5.40
2022-10-19T09:26:45.680Z,5.40
2022-10-19T09:27:45.663Z,5.50
2022-10-19T09:28:45.636Z,5.70
2022-10-19T09:29:45.635Z,4.90
2022-10-19T09:30:45.613Z,5.00
2022-10-19T09:31:45.646Z,5.00
2022-10-19T09:32:45.702Z,5.20
2022-10-19T09:33:45.576Z,5.30
2022-10-19T09:34:45.543Z,4.90
2022-10-19T09:35:45.565Z,4.80
2022-10-19T09:36:50.616Z,5.00
2022-10-19T09:37:46.636Z,5.00
2022-10-19T09:38:45.498Z,5.20
2022-10-19T09:39:52.436Z,5.30
2022-10-19T09:40:46.466Z,4.80
2022-10-19T09:41:45.473Z,5.00
2022-10-19T09:42:45.468Z,4.90
2022-10-19T09:43:45.550Z,5.30
2022-10-19T09:44:45.449Z,5.20
2022-10-19T09:45:45.420Z,5.10
2022-10-19T09:47:45.390Z,5.10
2022-10-19T09:48:45.368Z,5.30
2022-10-19T09:49:45.417Z,4.80
2022-10-19T09:50:45.344Z,4.70
2022-10-19T09:51:45.319Z,5.10
2022-10-19T09:52:45.319Z,5.20
2022-10-19T09:53:45.313Z,5.00
2022-10-19T09:54:45.291Z,5.00
2022-10-19T09:55:45.332Z,4.60
2022-10-19T09:56:45.421Z,4.80
2022-10-19T09:57:45.273Z,5.00
2022-10-19T09:58:45.241Z,4.90
2022-10-19T09:59:45.235Z,4.40
2022-10-19T10:00:45.205Z,4.50
2022-10-19T10:01:45.241Z,4.80
2022-10-19T10:03:45.163Z,4.80
2022-10-19T10:04:45.156Z,4.70
2022-10-19T10:05:45.237Z,4.90
2022-10-19T10:06:45.106Z,4.40
2022-10-19T10:07:45.237Z,4.80
2022-10-19T10:08:45.167Z,4.70
2022-10-19T10:09:45.076Z,5.20
2022-10-19T10:10:45.099Z,4.60
2022-10-19T10:11:45.127Z,4.80
2022-10-19T10:12:45.050Z,4.40
2022-10-19T10:13:45.059Z,4.60
2022-10-19T10:14:45.029Z,4.70
2022-10-19T10:15:45.016Z,4.40
2022-10-19T10:16:44.993Z,4.80
2022-10-19T10:17:45.000Z,4.60
2022-10-19T10:18:44.942Z,4.60
2022-10-19T10:19:45.080Z,4.60
2022-10-19T10:20:44.991Z,5.10
2022-10-19T10:21:44.910Z,5.00
2022-10-19T10:22:44.903Z,4.80
2022-10-19T10:23:44.891Z,4.40
2022-10-19T10:24:44.874Z,4.90
2022-10-19T10:25:44.912Z,4.70
2022-10-19T10:26:44.840Z,4.60
2022-10-19T10:27:44.845Z,4.70
2022-10-19T10:28:44.820Z,4.50
2022-10-19T10:29:44.825Z,4.40
2022-10-19T10:30:44.804Z,4.90
2022-10-19T10:31:44.801Z,4.50
2022-10-19T10:32:47.279Z,4.50
2022-10-19T10:33:45.574Z,4.60
2022-10-19T10:34:50.616Z,3.90
2022-10-19T10:35:45.743Z,4.50
2022-10-19T10:36:44.714Z,4.40
2022-10-19T10:37:44.825Z,4.30
2022-10-19T10:38:44.687Z,4.70
2022-10-19T10:39:44.665Z,4.50
2022-10-19T10:40:44.670Z,4.50
2022-10-19T10:41:44.657Z,4.80
2022-10-19T10:42:44.636Z,4.50
2022-10-19T10:43:44.743Z,4.80
2022-10-19T10:44:44.611Z,4.70
2022-10-19T10:45:44.608Z,5.00
2022-10-19T10:46:44.567Z,4.80
2022-10-19T10:47:44.576Z,4.70
2022-10-19T10:48:44.555Z,4.60
2022-10-19T10:49:44.557Z,4.80
2022-10-19T10:50:44.551Z,4.60
2022-10-19T10:51:47.120Z,4.40
2022-10-19T10:52:44.513Z,4.70
2022-10-19T10:53:44.503Z,4.80
2022-10-19T10:54:44.452Z,4.70
2022-10-19T10:55:44.481Z,4.70
2022-10-19T10:56:44.435Z,4.90
2022-10-19T10:57:44.419Z,4.50
2022-10-19T10:58:44.414Z,4.70
2022-10-19T10:59:45.642Z,4.80
2022-10-19T11:00:44.377Z,4.50
2022-10-19T11:01:44.442Z,4.70
2022-10-19T11:02:44.375Z,4.80
2022-10-19T11:03:44.333Z,4.70
2022-10-19T11:04:47.381Z,4.70
2022-10-19T11:05:45.321Z,4.40
2022-10-19T11:06:44.789Z,4.10
2022-10-19T11:07:44.336Z,4.60
2022-10-19T11:08:44.339Z,4.60
2022-10-19T11:09:44.256Z,4.40
2022-10-19T11:10:44.249Z,4.70
2022-10-19T11:11:44.227Z,4.90
2022-10-19T11:12:44.258Z,4.60
2022-10-19T11:13:44.260Z,4.40
2022-10-19T11:14:46.937Z,4.60
2022-10-19T11:15:44.170Z,4.30
2022-10-19T11:16:44.190Z,4.30
2022-10-19T11:17:44.166Z,4.50
2022-10-19T11:18:44.162Z,4.90
2022-10-19T11:19:44.162Z,4.50
2022-10-19T11:20:44.112Z,4.80
2022-10-19T11:21:44.118Z,4.60
2022-10-19T11:22:44.117Z,4.80
2022-10-19T11:23:44.073Z,4.50
2022-10-19T11:24:46.462Z,4.40
2022-10-19T11:25:44.084Z,4.30
2022-10-19T11:26:44.027Z,4.30
2022-10-19T11:27:44.022Z,4.30
2022-10-19T11:28:43.993Z,4.60
2022-10-19T11:29:43.993Z,4.50
2022-10-19T11:30:46.251Z,4.10
2022-10-19T11:31:44.076Z,4.80
2022-10-19T11:32:46.036Z,4.30
2022-10-19T11:33:44.000Z,4.90
2022-10-19T11:34:43.922Z,4.40
2022-10-19T11:35:43.944Z,4.40
2022-10-19T11:36:43.916Z,4.40
2022-10-19T11:37:50.215Z,4.50
2022-10-19T11:38:44.871Z,4.20
2022-10-19T11:39:43.862Z,4.30
2022-10-19T11:40:54.284Z,4.40
2022-10-19T11:41:44.842Z,4.10
2022-10-19T11:42:43.827Z,4.40
2022-10-19T11:43:43.930Z,4.20
2022-10-19T11:44:43.792Z,4.30
2022-10-19T11:45:43.765Z,4.20
2022-10-19T11:46:43.763Z,4.30
2022-10-19T11:47:43.751Z,4.60
2022-10-19T11:48:44.014Z,4.50
2022-10-19T11:49:43.829Z,4.30
2022-10-19T11:50:46.751Z,4.40
2022-10-19T11:51:44.813Z,4.50
2022-10-19T11:52:43.692Z,4.70
2022-10-19T11:53:43.675Z,4.30
2022-10-19T11:54:43.663Z,4.50
2022-10-19T11:55:43.700Z,4.80
2022-10-19T11:57:01.674Z,5.00
2022-10-19T11:57:44.612Z,4.70
2022-10-19T11:58:43.624Z,4.60
2022-10-19T11:59:43.583Z,4.60
2022-10-19T12:00:43.586Z,4.70
2022-10-19T12:01:43.759Z,5.30
2022-10-19T12:02:43.535Z,4.50
2022-10-19T12:03:43.528Z,4.80
2022-10-19T12:04:43.522Z,4.90
2022-10-19T12:05:43.502Z,4.90
2022-10-19T12:06:43.485Z,5.00
2022-10-19T12:07:43.505Z,4.70
2022-10-19T12:08:43.523Z,4.80
2022-10-19T12:09:43.436Z,4.70
2022-10-19T12:10:43.447Z,5.20
2022-10-19T12:11:43.427Z,4.80
2022-10-19T12:12:43.411Z,4.80
2022-10-19T12:13:43.412Z,5.00
2022-10-19T12:14:43.368Z,4.70
2022-10-19T12:15:43.354Z,4.60
2022-10-19T12:16:43.344Z,4.80
2022-10-19T12:17:43.326Z,4.70
2022-10-19T12:18:43.334Z,4.70
2022-10-19T12:19:43.430Z,4.70
2022-10-19T12:20:43.292Z,4.40
2022-10-19T12:21:43.278Z,4.40
2022-10-19T12:22:43.285Z,4.90
2022-10-19T12:23:43.269Z,4.50
2022-10-19T12:24:43.258Z,5.00
2022-10-19T12:25:43.352Z,4.60
2022-10-19T12:26:43.223Z,4.80
2022-10-19T12:27:43.198Z,4.90
2022-10-19T12:28:43.178Z,4.40
2022-10-19T12:29:43.180Z,5.00
2022-10-19T12:30:43.168Z,4.80
2022-10-19T12:31:43.166Z,4.30
2022-10-19T12:32:43.149Z,4.30
2022-10-19T12:33:43.124Z,4.20
2022-10-19T12:34:43.099Z,4.20
2022-10-19T12:35:43.107Z,4.20
2022-10-19T12:36:43.075Z,4.60
2022-10-19T12:37:43.193Z,4.20
2022-10-19T12:38:45.965Z,4.20
2022-10-19T12:39:43.024Z,4.10
2022-10-19T12:40:43.014Z,4.60
2022-10-19T12:41:42.995Z,4.00
2022-10-19T12:42:42.989Z,4.30
2022-10-19T12:43:43.014Z,4.30
2022-10-19T12:44:42.964Z,3.90
2022-10-19T12:45:42.945Z,4.20
2022-10-19T12:46:42.962Z,4.20
2022-10-19T12:47:42.910Z,4.20
2022-10-19T12:48:42.919Z,4.40
2022-10-19T12:49:42.945Z,4.20
2022-10-19T12:50:42.917Z,4.60
2022-10-19T12:51:42.884Z,4.30
2022-10-19T12:52:42.859Z,4.40
2022-10-19T12:53:42.849Z,4.40
2022-10-19T12:54:42.825Z,4.50
2022-10-19T12:55:44.950Z,4.60
2022-10-19T12:56:42.815Z,4.70
2022-10-19T12:57:42.787Z,4.40
2022-10-19T12:58:46.795Z,4.70
2022-10-19T12:59:43.748Z,4.90
2022-10-19T13:00:42.852Z,5.00
2022-10-19T13:01:42.875Z,4.80
2022-10-19T13:02:42.767Z,4.40
2022-10-19T13:03:42.710Z,4.20
2022-10-19T13:04:42.720Z,4.50
2022-10-19T13:05:42.687Z,4.30
2022-10-19T13:06:42.678Z,4.70
2022-10-19T13:07:42.805Z,4.40
2022-10-19T13:08:42.741Z,4.80
2022-10-19T13:09:42.612Z,5.00
2022-10-19T13:10:42.636Z,5.40
2022-10-19T13:11:42.583Z,6.80
2022-10-19T13:12:42.617Z,4.60
2022-10-19T13:13:42.648Z,4.40
2022-10-19T13:14:42.552Z,4.50